Portland, Oregon
Traffic Map
Current Weather Conditions
Portland, Oregon
Broken Clouds
Broken Clouds
60°
Feels Like: 60°
Wind Chill: 60° Ceiling: 3700
Heat Index: 60° Visibility: 10mi
Dew Point: 53° Wind: 0mph
Humidity: 78% Direction: ° ()
Pressure: 30.16in Gusts: 0mph
Raw Report DataKPDX 230953Z 00000KT 10SM BKN037 BKN060 16/12 A3016 RMK AO2 SLP210 T01560117
Traffic Incident Summary
Active as of:
Severity:
Category:
InformationThere was an issue retrieving the traffic information for this location. Please try a different location or try again shortly.
Advertisements